Time;durP1;ratioP1;P1;durP2;ratioP2;P2;SDS_P1;SDS_P2;PMS_P1;PMS_P2;Temp;Humidity;BMP_temperature;BMP_pressure;BME280_temperature;BME280_humidity;BME280_pressure;Samples;Min_cycle;Max_cycle;Signal;HPM_P1;HPM_P2
2022/01/01 00:02:13;;;;;;;32.97;28.70;;;17.00;58.30;;;;;;5088057;28;20429;-51
2022/01/01 00:04:40;;;;;;;36.00;27.33;;;17.00;58.20;;;;;;5084908;28;20495;-52
2022/01/01 00:07:06;;;;;;;35.03;30.17;;;17.00;58.20;;;;;;5077943;28;20200;-53
2022/01/01 00:09:31;;;;;;;41.53;34.40;;;17.10;58.20;;;;;;5078195;28;20525;-51
2022/01/01 00:11:57;;;;;;;37.30;32.37;;;17.10;58.30;;;;;;5083725;28;20206;-52
2022/01/01 00:14:22;;;;;;;43.80;34.27;;;17.10;58.10;;;;;;5078049;28;20192;-53
2022/01/01 00:16:48;;;;;;;47.13;36.10;;;17.10;58.00;;;;;;5081238;28;20195;-52
2022/01/01 00:19:14;;;;;;;48.07;38.07;;;17.10;58.10;;;;;;5070247;28;20235;-51
2022/01/01 00:21:41;;;;;;;40.70;34.03;;;17.10;58.10;;;;;;5082664;28;20192;-50
2022/01/01 00:24:07;;;;;;;51.10;37.93;;;17.10;58.00;;;;;;5080596;28;20230;-51
2022/01/01 00:26:32;;;;;;;45.27;37.83;;;17.10;57.90;;;;;;5083637;28;20432;-49
2022/01/01 00:28:58;;;;;;;52.77;38.20;;;17.00;57.90;;;;;;5086559;28;20187;-53
2022/01/01 00:31:25;;;;;;;46.00;37.40;;;17.00;58.00;;;;;;5080093;28;20245;-53
2022/01/01 00:33:50;;;;;;;47.77;37.77;;;17.00;57.90;;;;;;5087245;28;20198;-51
2022/01/01 00:36:16;;;;;;;44.37;34.87;;;17.00;57.90;;;;;;5089635;28;20426;-52
2022/01/01 00:38:42;;;;;;;40.33;33.03;;;17.10;57.80;;;;;;5093991;28;20195;-52
2022/01/01 00:41:07;;;;;;;41.43;34.07;;;17.10;57.70;;;;;;5089902;28;20264;-54
2022/01/01 00:43:33;;;;;;;38.70;33.23;;;17.10;57.50;;;;;;5087431;28;20263;-50
2022/01/01 00:45:58;;;;;;;40.03;31.50;;;17.20;57.50;;;;;;5093880;28;20561;-51
2022/01/01 00:48:24;;;;;;;38.63;32.43;;;17.20;57.40;;;;;;5094550;28;20592;-52
2022/01/01 00:50:49;;;;;;;37.97;30.63;;;17.20;57.40;;;;;;5081013;28;20683;-53
2022/01/01 00:53:15;;;;;;;39.07;30.77;;;17.20;57.30;;;;;;5084876;28;20191;-53
2022/01/01 00:55:41;;;;;;;37.23;31.00;;;17.10;57.20;;;;;;5089100;28;20276;-53
2022/01/01 00:58:06;;;;;;;36.40;29.50;;;17.10;57.40;;;;;;5090245;28;20203;-52
2022/01/01 01:00:32;;;;;;;33.50;28.73;;;17.10;57.30;;;;;;5088307;28;20637;-53
2022/01/01 01:02:58;;;;;;;36.10;29.23;;;17.20;57.30;;;;;;5084946;28;20187;-53
2022/01/01 01:05:24;;;;;;;35.70;28.23;;;17.20;57.30;;;;;;5090435;28;20195;-53
2022/01/01 01:07:50;;;;;;;31.07;27.23;;;17.20;57.20;;;;;;5092136;28;20313;-50
2022/01/01 01:10:15;;;;;;;31.03;26.50;;;17.30;57.20;;;;;;5083364;28;20438;-54
2022/01/01 01:12:45;;;;;;;35.10;26.77;;;17.20;57.00;;;;;;5082973;28;20199;-51
2022/01/01 01:15:17;;;;;;;29.57;25.67;;;17.20;57.10;;;;;;5082540;28;20210;-53
2022/01/01 01:17:48;;;;;;;30.07;25.50;;;17.20;57.10;;;;;;5086914;28;20442;-51
2022/01/01 01:20:14;;;;;;;28.67;24.50;;;17.20;57.60;;;;;;5086140;28;20524;-52
2022/01/01 01:22:40;;;;;;;33.70;28.10;;;17.20;57.10;;;;;;5078504;28;20426;-50
2022/01/01 01:25:07;;;;;;;33.70;29.53;;;17.20;57.20;;;;;;5090221;28;20441;-52
2022/01/01 01:27:34;;;;;;;35.40;29.40;;;17.20;57.10;;;;;;5087536;28;20433;-53
2022/01/01 01:30:00;;;;;;;32.23;26.10;;;17.20;57.20;;;;;;5079499;28;20440;-51
2022/01/01 01:32:25;;;;;;;31.97;27.30;;;17.20;57.10;;;;;;5092176;28;20437;-50
2022/01/01 01:34:51;;;;;;;34.00;28.93;;;17.20;57.80;;;;;;5090755;28;20195;-49
2022/01/01 01:37:17;;;;;;;32.77;28.37;;;17.20;57.30;;;;;;5087356;28;20200;-50
2022/01/01 01:39:42;;;;;;;36.03;29.03;;;17.30;57.30;;;;;;5084943;28;20187;-49
2022/01/01 01:42:08;;;;;;;36.60;29.60;;;17.30;57.20;;;;;;5090710;28;20192;-49
2022/01/01 01:44:42;;;;;;;32.97;29.47;;;17.20;57.10;;;;;;5079190;28;20330;-51
2022/01/01 01:47:14;;;;;;;38.60;31.53;;;17.20;57.20;;;;;;5084467;28;20199;-49
2022/01/01 01:49:41;;;;;;;39.13;30.80;;;17.20;57.20;;;;;;5089184;28;20447;-52
2022/01/01 01:52:07;;;;;;;38.93;30.60;;;17.30;57.40;;;;;;5081763;28;20445;-50
2022/01/01 01:54:34;;;;;;;35.13;30.67;;;17.20;57.20;;;;;;5085812;28;20438;-50
2022/01/01 01:56:59;;;;;;;39.93;30.30;;;17.20;57.30;;;;;;5085129;28;20433;-51
2022/01/01 01:59:25;;;;;;;38.10;30.90;;;17.20;57.20;;;;;;5086645;28;20425;-50
2022/01/01 02:01:51;;;;;;;41.13;32.67;;;17.20;57.20;;;;;;5086675;28;20194;-50
2022/01/01 02:04:17;;;;;;;53.23;42.77;;;17.20;57.20;;;;;;5090785;28;20237;-50
2022/01/01 02:06:44;;;;;;;57.27;44.30;;;17.20;57.20;;;;;;5076800;28;20862;-51
2022/01/01 02:09:11;;;;;;;58.70;45.90;;;17.20;57.40;;;;;;5088113;28;20192;-50
2022/01/01 02:11:40;;;;;;;53.43;42.43;;;17.20;57.40;;;;;;5083877;28;21135;-51
2022/01/01 02:14:17;;;;;;;52.60;41.70;;;17.20;57.50;;;;;;5089290;28;20441;-50
2022/01/01 02:19:25;;;;;;;55.57;47.90;;;17.30;57.40;;;;;;5090157;28;20518;-51
2022/01/01 02:21:53;;;;;;;55.67;45.30;;;17.30;57.50;;;;;;5090569;28;20421;-50
2022/01/01 02:24:19;;;;;;;66.23;50.50;;;17.30;57.60;;;;;;5082471;28;20489;-50
2022/01/01 02:26:44;;;;;;;62.17;50.40;;;17.30;57.50;;;;;;5087515;28;20422;-52
2022/01/01 02:29:10;;;;;;;69.83;52.10;;;17.30;56.90;;;;;;5085207;28;20437;-51
2022/01/01 02:31:36;;;;;;;65.93;52.90;;;17.20;56.80;;;;;;5086669;28;20180;-49
2022/01/01 02:34:09;;;;;;;59.50;47.13;;;17.10;56.90;;;;;;5091301;28;20912;-49
2022/01/01 02:36:38;;;;;;;59.20;48.53;;;17.10;57.20;;;;;;5084399;28;20225;-50
2022/01/01 02:39:30;;;;;;;61.23;48.90;;;17.00;57.40;;;;;;5083828;28;20438;-49
2022/01/01 02:41:57;;;;;;;58.30;48.53;;;17.00;57.50;;;;;;5081438;28;20532;-51
2022/01/01 02:44:24;;;;;;;57.20;45.87;;;17.00;57.50;;;;;;5091973;28;20572;-52
2022/01/01 02:46:53;;;;;;;59.20;46.27;;;17.00;57.60;;;;;;5091516;28;20946;-53
2022/01/01 02:49:19;;;;;;;61.97;47.70;;;17.00;58.00;;;;;;5099591;28;20494;-49
2022/01/01 02:51:45;;;;;;;59.10;45.20;;;17.00;57.90;;;;;;5086476;28;20430;-50
2022/01/01 02:54:10;;;;;;;61.40;49.93;;;17.00;58.10;;;;;;5085381;28;20274;-53
2022/01/01 02:56:37;;;;;;;55.00;47.80;;;17.10;57.90;;;;;;5083834;28;20261;-51
2022/01/01 02:59:03;;;;;;;64.20;51.23;;;17.10;57.40;;;;;;5081418;28;20203;-52
2022/01/01 03:01:28;;;;;;;60.33;49.00;;;17.10;57.20;;;;;;5084972;28;20445;-50
2022/01/01 03:03:54;;;;;;;57.93;45.87;;;17.00;57.30;;;;;;5085726;28;20218;-49
2022/01/01 03:06:20;;;;;;;60.87;46.20;;;16.90;57.50;;;;;;5091064;28;20182;-50
2022/01/01 03:08:55;;;;;;;56.23;46.50;;;16.90;57.90;;;;;;5086625;28;20695;-52
2022/01/01 03:11:21;;;;;;;57.47;44.97;;;16.90;58.10;;;;;;5079178;28;20464;-52
2022/01/01 03:13:47;;;;;;;48.00;42.40;;;16.90;58.30;;;;;;5087323;28;20469;-52
2022/01/01 03:16:13;;;;;;;64.60;44.30;;;16.90;58.30;;;;;;5078238;28;20188;-53
2022/01/01 03:18:40;;;;;;;51.80;42.30;;;17.00;58.00;;;;;;5091209;28;20620;-53
2022/01/01 03:21:06;;;;;;;57.10;43.80;;;17.00;57.80;;;;;;5084147;28;20469;-53
2022/01/01 03:23:33;;;;;;;53.43;41.77;;;17.00;57.60;;;;;;5087194;28;20492;-53
2022/01/01 03:25:59;;;;;;;50.13;41.27;;;16.90;57.60;;;;;;5085549;28;20452;-53
2022/01/01 03:28:26;;;;;;;47.23;41.20;;;16.90;57.80;;;;;;5086193;28;20767;-53
2022/01/01 03:30:51;;;;;;;50.13;39.80;;;16.90;58.40;;;;;;5098845;28;20425;-53
2022/01/01 03:33:17;;;;;;;55.07;43.17;;;16.80;58.70;;;;;;5089738;28;20989;-53
2022/01/01 03:35:43;;;;;;;50.60;41.20;;;16.60;58.60;;;;;;5083605;28;20590;-53
2022/01/01 03:38:09;;;;;;;52.40;43.07;;;16.50;59.00;;;;;;5087672;28;20445;-50
2022/01/01 03:40:34;;;;;;;57.23;46.47;;;16.60;59.40;;;;;;5090902;28;20198;-52
2022/01/01 03:43:00;;;;;;;57.57;44.47;;;16.60;59.50;;;;;;5100403;28;20274;-53
2022/01/01 03:45:25;;;;;;;54.77;42.27;;;16.70;59.20;;;;;;5088028;28;20190;-51
2022/01/01 03:47:52;;;;;;;54.73;41.30;;;16.50;59.10;;;;;;5082970;28;20320;-53
2022/01/01 03:50:17;;;;;;;47.33;39.63;;;16.50;59.00;;;;;;5095375;28;20198;-51
2022/01/01 03:52:44;;;;;;;46.30;38.63;;;16.40;59.60;;;;;;5091404;28;20432;-52
2022/01/01 03:55:12;;;;;;;51.67;39.80;;;16.30;59.70;;;;;;5090443;28;20187;-52
2022/01/01 03:57:37;;;;;;;50.40;41.67;;;16.30;60.00;;;;;;5083661;28;20932;-52
2022/01/01 04:00:11;;;;;;;48.63;35.17;;;16.30;60.20;;;;;;5085576;28;20427;-53
2022/01/01 04:02:36;;;;;;;46.93;36.60;;;16.50;59.80;;;;;;5086883;28;20198;-50
2022/01/01 04:05:03;;;;;;;43.30;35.07;;;16.50;59.80;;;;;;5082606;28;20849;-53
2022/01/01 04:07:32;;;;;;;40.00;33.03;;;16.60;59.50;;;;;;5081880;28;20193;-51
2022/01/01 04:09:58;;;;;;;40.53;32.60;;;16.70;59.20;;;;;;5080983;28;20789;-49
2022/01/01 04:12:25;;;;;;;41.10;31.73;;;16.80;59.40;;;;;;5082440;28;20426;-53
2022/01/01 04:14:51;;;;;;;37.40;32.57;;;16.70;59.70;;;;;;5074390;28;20450;-52
2022/01/01 04:17:17;;;;;;;47.00;39.83;;;16.80;59.50;;;;;;5088199;28;20811;-50
2022/01/01 04:19:43;;;;;;;50.33;38.50;;;16.90;59.20;;;;;;5086240;28;20548;-53
2022/01/01 04:22:15;;;;;;;55.10;42.03;;;16.90;58.90;;;;;;5089435;28;20425;-52
2022/01/01 04:24:41;;;;;;;50.13;38.80;;;17.00;58.40;;;;;;5078117;28;20246;-53
2022/01/01 04:27:07;;;;;;;51.47;41.67;;;17.00;58.60;;;;;;5084889;28;20430;-53
2022/01/01 04:29:33;;;;;;;51.67;41.73;;;17.00;58.70;;;;;;5089051;28;20190;-49
2022/01/01 04:32:00;;;;;;;54.27;43.53;;;17.00;58.70;;;;;;5087110;28;20464;-53
2022/01/01 04:34:27;;;;;;;53.47;41.27;;;17.00;58.60;;;;;;5090007;28;20447;-51
2022/01/01 04:37:06;;;;;;;46.43;39.70;;;17.00;58.50;;;;;;5095947;28;20441;-49
2022/01/01 04:39:32;;;;;;;42.90;35.03;;;16.70;58.90;;;;;;5089135;28;20451;-50
2022/01/01 04:41:57;;;;;;;38.10;31.07;;;16.40;59.30;;;;;;5089173;28;20877;-49
2022/01/01 04:44:23;;;;;;;40.97;31.60;;;16.40;60.10;;;;;;5078334;28;20219;-51
2022/01/01 04:46:49;;;;;;;44.07;31.40;;;16.40;60.20;;;;;;5086865;28;20654;-52
2022/01/01 04:49:15;;;;;;;33.80;28.33;;;16.40;59.60;;;;;;5084100;28;20190;-51
2022/01/01 04:51:40;;;;;;;34.40;28.40;;;16.40;60.00;;;;;;5082820;28;20200;-50
2022/01/01 04:54:13;;;;;;;30.40;25.60;;;16.40;60.20;;;;;;5078808;28;20614;-49
2022/01/01 04:56:43;;;;;;;31.93;25.57;;;16.50;60.00;;;;;;5077496;28;20196;-52
2022/01/01 04:59:09;;;;;;;34.93;25.60;;;16.60;59.80;;;;;;5087210;28;20430;-49
2022/01/01 05:01:35;;;;;;;27.53;22.10;;;16.70;59.30;;;;;;5077286;28;20934;-51
2022/01/01 05:04:01;;;;;;;29.27;24.00;;;16.60;59.00;;;;;;5085416;28;20541;-50
2022/01/01 05:06:26;;;;;;;30.13;26.20;;;16.70;59.10;;;;;;5083143;28;20199;-49
2022/01/01 05:08:52;;;;;;;31.60;26.37;;;16.70;59.10;;;;;;5087385;28;20671;-49
2022/01/01 05:11:17;;;;;;;35.90;26.53;;;16.80;58.90;;;;;;5080690;28;20187;-50
2022/01/01 05:13:43;;;;;;;34.90;26.43;;;16.70;58.70;;;;;;5081523;28;20704;-49
2022/01/01 05:16:14;;;;;;;32.20;25.70;;;16.60;58.90;;;;;;5079710;28;20196;-49
2022/01/01 05:18:40;;;;;;;35.83;24.50;;;16.60;59.00;;;;;;5086715;28;20622;-49
2022/01/01 05:21:05;;;;;;;33.80;23.43;;;16.50;58.90;;;;;;5079819;28;20468;-49
2022/01/01 05:23:31;;;;;;;27.33;21.80;;;16.40;59.20;;;;;;5086942;28;20254;-51
2022/01/01 05:25:56;;;;;;;25.70;21.13;;;16.50;59.20;;;;;;5096280;28;20244;-51
2022/01/01 05:28:22;;;;;;;32.97;25.13;;;16.40;59.30;;;;;;5087744;28;20230;-50
2022/01/01 05:30:47;;;;;;;33.00;28.90;;;16.50;59.20;;;;;;5087124;28;20195;-49
2022/01/01 05:33:13;;;;;;;29.40;24.40;;;16.60;58.60;;;;;;5080245;28;20195;-49
2022/01/01 05:35:39;;;;;;;36.63;29.73;;;16.60;58.60;;;;;;5085529;28;20590;-50
2022/01/01 05:38:04;;;;;;;37.87;29.40;;;16.60;58.50;;;;;;5088713;28;20221;-50
2022/01/01 05:40:30;;;;;;;39.80;30.63;;;16.40;59.00;;;;;;5083763;28;20204;-50
2022/01/01 05:42:56;;;;;;;32.80;29.03;;;16.40;59.60;;;;;;5085716;28;20210;-49
2022/01/01 05:45:22;;;;;;;36.40;31.87;;;16.40;58.80;;;;;;5084515;28;20195;-50
2022/01/01 05:47:48;;;;;;;35.10;29.30;;;16.40;59.10;;;;;;5088870;28;20525;-50
2022/01/01 05:50:13;;;;;;;33.50;27.90;;;16.40;59.10;;;;;;5089907;28;20256;-50
2022/01/01 05:52:39;;;;;;;32.03;25.10;;;16.40;58.70;;;;;;5090801;28;20202;-50
2022/01/01 05:55:05;;;;;;;27.60;22.40;;;16.50;58.40;;;;;;5091687;28;20205;-50
2022/01/01 05:57:31;;;;;;;27.33;21.40;;;16.50;58.40;;;;;;5091549;28;20203;-49
2022/01/01 05:59:56;;;;;;;26.37;21.87;;;16.40;58.30;;;;;;5087287;28;20447;-49
2022/01/01 06:02:22;;;;;;;27.57;22.93;;;16.40;58.40;;;;;;5080224;28;20195;-49
2022/01/01 06:04:47;;;;;;;30.47;23.00;;;16.40;58.50;;;;;;5088002;28;20302;-50
2022/01/01 06:07:13;;;;;;;27.80;21.97;;;16.40;58.60;;;;;;5082750;28;20199;-51
2022/01/01 06:09:39;;;;;;;23.60;19.57;;;16.50;58.50;;;;;;5084794;28;20228;-49
2022/01/01 06:12:05;;;;;;;26.00;20.90;;;16.50;58.40;;;;;;5086628;28;20190;-49
2022/01/01 06:14:30;;;;;;;25.23;20.60;;;16.50;58.10;;;;;;5087242;28;20304;-50
2022/01/01 06:16:56;;;;;;;24.07;18.83;;;16.60;58.10;;;;;;5079118;28;20531;-49
2022/01/01 06:19:21;;;;;;;21.43;18.10;;;16.60;58.40;;;;;;5090769;28;20242;-50
2022/01/01 06:21:47;;;;;;;19.60;16.57;;;16.70;58.30;;;;;;5081352;28;20188;-49
2022/01/01 06:24:13;;;;;;;20.90;17.17;;;16.70;57.90;;;;;;5080645;28;20269;-50
2022/01/01 06:26:38;;;;;;;19.40;16.17;;;16.70;57.70;;;;;;5088285;28;20229;-51
2022/01/01 06:29:04;;;;;;;18.07;15.00;;;16.70;57.80;;;;;;5081211;28;20199;-52
2022/01/01 06:31:30;;;;;;;20.33;16.30;;;16.70;57.50;;;;;;5085862;28;20270;-49
2022/01/01 06:33:56;;;;;;;20.90;16.57;;;16.80;57.50;;;;;;5086040;28;20960;-49
2022/01/01 06:36:21;;;;;;;21.80;16.70;;;16.80;57.10;;;;;;5085899;28;20226;-51
2022/01/01 06:38:47;;;;;;;24.37;18.93;;;16.80;57.20;;;;;;5076684;28;20223;-50
2022/01/01 06:41:13;;;;;;;21.80;18.17;;;16.80;57.50;;;;;;5086161;28;20199;-51
2022/01/01 06:43:39;;;;;;;19.27;17.10;;;16.80;57.30;;;;;;5091789;28;20720;-53
2022/01/01 06:46:08;;;;;;;19.50;17.33;;;16.80;56.80;;;;;;5084891;28;20274;-52
2022/01/01 06:48:34;;;;;;;20.23;15.40;;;16.80;57.10;;;;;;5091642;28;20513;-51
2022/01/01 06:51:00;;;;;;;19.20;15.50;;;16.80;57.00;;;;;;5089447;28;20834;-50
2022/01/01 06:53:26;;;;;;;16.73;14.70;;;16.80;56.70;;;;;;5088914;28;20461;-53
2022/01/01 06:55:52;;;;;;;17.23;13.23;;;16.80;56.40;;;;;;5090037;28;20198;-51
2022/01/01 06:58:17;;;;;;;15.57;11.57;;;16.70;56.30;;;;;;5085195;28;20563;-51
2022/01/01 07:00:43;;;;;;;13.03;11.53;;;16.60;56.40;;;;;;5086159;28;20565;-52
2022/01/01 07:03:09;;;;;;;12.40;10.00;;;16.60;56.10;;;;;;5077521;28;20621;-49
2022/01/01 07:05:34;;;;;;;12.03;10.27;;;16.50;55.90;;;;;;5080090;28;20831;-50
2022/01/01 07:08:00;;;;;;;12.90;9.93;;;16.50;56.50;;;;;;5081377;28;20636;-52
2022/01/01 07:10:26;;;;;;;10.00;9.00;;;16.50;56.30;;;;;;5084772;28;20198;-52
2022/01/01 07:12:51;;;;;;;14.17;9.90;;;16.30;55.80;;;;;;5089496;28;20328;-50
2022/01/01 07:15:17;;;;;;;10.97;9.50;;;16.20;55.90;;;;;;5079745;28;20206;-52
2022/01/01 07:17:43;;;;;;;12.80;8.80;;;16.20;55.80;;;;;;5082224;28;20199;-52
2022/01/01 07:20:10;;;;;;;10.03;8.13;;;16.30;55.80;;;;;;5080558;28;20240;-49
2022/01/01 07:22:43;;;;;;;10.10;8.00;;;16.30;55.50;;;;;;5094680;28;20441;-51
2022/01/01 07:25:10;;;;;;;9.43;7.63;;;16.40;55.40;;;;;;5087042;28;20495;-53
2022/01/01 07:27:37;;;;;;;9.80;8.20;;;16.20;55.60;;;;;;5116199;27;20806;-51
2022/01/01 07:30:04;;;;;;;10.80;8.77;;;16.30;55.70;;;;;;5090885;28;20943;-50
2022/01/01 07:32:29;;;;;;;10.40;8.13;;;16.20;55.50;;;;;;5084838;28;20429;-52
2022/01/01 07:34:55;;;;;;;10.47;8.20;;;16.10;55.50;;;;;;5080519;28;20437;-50
2022/01/01 07:37:21;;;;;;;12.60;9.03;;;16.20;55.50;;;;;;5093153;28;20248;-51
2022/01/01 07:39:46;;;;;;;9.07;7.73;;;16.30;55.60;;;;;;5088927;28;20202;-50
2022/01/01 07:42:12;;;;;;;10.23;8.50;;;16.70;55.10;;;;;;5076162;28;20188;-51
2022/01/01 07:44:39;;;;;;;9.27;8.33;;;17.60;53.80;;;;;;5087813;28;20336;-53
2022/01/01 07:47:05;;;;;;;10.07;8.43;;;18.60;51.60;;;;;;5089431;28;20443;-53
2022/01/01 07:49:31;;;;;;;10.80;8.70;;;19.60;49.30;;;;;;5084860;28;20852;-50
2022/01/01 07:51:57;;;;;;;10.10;8.43;;;20.50;47.90;;;;;;5088960;28;20229;-50
2022/01/01 07:54:22;;;;;;;10.93;8.93;;;21.00;45.80;;;;;;5085626;28;20203;-50
2022/01/01 07:56:48;;;;;;;10.17;7.93;;;21.00;45.90;;;;;;5083100;28;20199;-49
2022/01/01 07:59:13;;;;;;;8.93;8.00;;;20.90;45.60;;;;;;5085350;28;20191;-52
2022/01/01 08:01:40;;;;;;;8.60;7.17;;;20.40;45.90;;;;;;5085728;28;20582;-50
2022/01/01 08:04:05;;;;;;;8.90;7.97;;;20.00;46.80;;;;;;5081371;28;20265;-51
2022/01/01 08:06:32;;;;;;;8.57;7.40;;;19.50;47.70;;;;;;5086649;28;20821;-49
2022/01/01 08:08:57;;;;;;;7.00;5.77;;;19.10;49.10;;;;;;5088703;28;20605;-53
2022/01/01 08:11:24;;;;;;;7.10;5.87;;;18.30;48.70;;;;;;5088397;28;20445;-49
2022/01/01 08:13:50;;;;;;;7.57;6.87;;;17.90;50.30;;;;;;5089970;28;20270;-51
2022/01/01 08:16:16;;;;;;;7.27;6.13;;;17.50;51.20;;;;;;5094099;28;20516;-52
2022/01/01 08:18:41;;;;;;;6.57;5.87;;;16.90;52.00;;;;;;5094869;28;20556;-51
2022/01/01 08:21:07;;;;;;;5.67;5.17;;;16.50;53.60;;;;;;5089618;28;20608;-50
2022/01/01 08:23:32;;;;;;;7.13;6.43;;;16.30;53.10;;;;;;5083709;28;20301;-49
2022/01/01 08:26:00;;;;;;;6.80;5.73;;;16.00;54.20;;;;;;5082424;28;20195;-52
2022/01/01 08:28:26;;;;;;;5.83;5.20;;;16.20;54.30;;;;;;5078635;28;20214;-50
2022/01/01 08:30:51;;;;;;;6.30;5.30;;;16.00;53.80;;;;;;5081679;28;20433;-51
2022/01/01 08:33:17;;;;;;;6.37;5.70;;;15.80;54.30;;;;;;5080117;28;20443;-51
2022/01/01 08:35:43;;;;;;;5.13;4.63;;;15.70;53.90;;;;;;5088621;28;20207;-51
2022/01/01 08:38:09;;;;;;;5.60;4.90;;;15.80;54.30;;;;;;5085724;28;20229;-51
2022/01/01 08:40:35;;;;;;;6.33;4.27;;;16.00;53.60;;;;;;5089532;28;20723;-49
2022/01/01 08:43:01;;;;;;;5.27;4.03;;;16.10;53.40;;;;;;5087330;28;20948;-52
2022/01/01 08:45:27;;;;;;;5.50;4.63;;;16.30;52.70;;;;;;5089612;28;20495;-49
2022/01/01 08:47:53;;;;;;;4.80;4.30;;;16.50;52.40;;;;;;5088705;28;20426;-51
2022/01/01 08:50:18;;;;;;;5.07;4.57;;;16.60;51.90;;;;;;5089079;28;20206;-50
2022/01/01 08:52:44;;;;;;;4.83;4.43;;;16.70;51.90;;;;;;5085377;28;20210;-52
2022/01/01 08:55:10;;;;;;;10.93;5.27;;;16.80;51.90;;;;;;5091123;28;20202;-50
2022/01/01 08:57:36;;;;;;;5.50;5.00;;;16.70;51.80;;;;;;5080735;28;20256;-49
2022/01/01 09:00:05;;;;;;;6.23;4.50;;;16.80;52.50;;;;;;5082652;28;20468;-50
2022/01/01 09:02:31;;;;;;;5.30;4.80;;;16.90;52.30;;;;;;5088319;28;20538;-50
2022/01/01 09:04:56;;;;;;;5.13;4.63;;;17.00;52.00;;;;;;5085401;28;20482;-52
2022/01/01 09:07:28;;;;;;;5.43;4.90;;;16.80;51.60;;;;;;5089088;28;20226;-50
2022/01/01 09:09:57;;;;;;;5.33;4.70;;;17.00;52.00;;;;;;5086148;28;20199;-49
2022/01/01 09:12:23;;;;;;;5.03;4.50;;;16.90;51.20;;;;;;5087764;28;20493;-50
2022/01/01 09:14:49;;;;;;;8.37;5.37;;;16.90;51.80;;;;;;5089193;28;20937;-50
2022/01/01 09:17:14;;;;;;;4.83;4.37;;;16.90;51.40;;;;;;5084581;28;20481;-52
2022/01/01 09:19:40;;;;;;;5.07;4.07;;;17.10;51.60;;;;;;5089376;28;20226;-53
2022/01/01 09:22:06;;;;;;;4.17;3.77;;;17.30;51.30;;;;;;5085176;28;20198;-53
2022/01/01 09:24:31;;;;;;;4.23;3.83;;;17.50;50.80;;;;;;5089124;28;20259;-52
2022/01/01 09:26:57;;;;;;;5.63;4.40;;;17.50;50.30;;;;;;5083782;28;20188;-52
2022/01/01 09:29:24;;;;;;;4.63;4.23;;;17.50;49.50;;;;;;5093700;28;20238;-50
2022/01/01 09:31:49;;;;;;;5.30;4.20;;;17.40;49.80;;;;;;5087521;28;20759;-53
2022/01/01 09:34:15;;;;;;;4.83;3.93;;;17.10;50.40;;;;;;5087082;28;20191;-53
2022/01/01 09:36:41;;;;;;;4.60;4.10;;;17.20;50.40;;;;;;5091779;28;20195;-53
2022/01/01 09:39:07;;;;;;;4.90;4.00;;;17.30;51.00;;;;;;5089519;28;20574;-53
2022/01/01 09:41:33;;;;;;;8.13;4.27;;;17.60;50.00;;;;;;5091387;28;20653;-52
2022/01/01 09:43:59;;;;;;;3.90;3.50;;;18.00;49.60;;;;;;5090914;28;21045;-53
2022/01/01 09:46:28;;;;;;;3.83;3.53;;;18.40;49.10;;;;;;5083485;28;20430;-53
2022/01/01 09:48:54;;;;;;;4.17;3.80;;;18.70;48.30;;;;;;5088509;28;20193;-51
2022/01/01 09:51:21;;;;;;;4.23;3.80;;;19.10;47.80;;;;;;5082251;28;20433;-52
2022/01/01 09:53:47;;;;;;;4.20;3.80;;;19.50;47.10;;;;;;5085416;28;20437;-53
2022/01/01 09:56:13;;;;;;;4.20;3.50;;;19.80;46.00;;;;;;5072261;28;20498;-51
2022/01/01 09:58:39;;;;;;;4.27;3.80;;;20.20;45.60;;;;;;5087118;28;20470;-51
2022/01/01 10:01:07;;;;;;;4.60;4.20;;;20.50;45.10;;;;;;5077115;28;20214;-49
2022/01/01 10:03:43;;;;;;;4.37;3.70;;;20.90;44.60;;;;;;5075134;28;20836;-53
2022/01/01 10:06:13;;;;;;;6.07;4.17;;;21.10;44.00;;;;;;5082499;28;20494;-53
2022/01/01 10:08:41;;;;;;;3.40;3.10;;;21.40;43.50;;;;;;5078140;28;20490;-51
2022/01/01 10:11:08;;;;;;;5.70;3.17;;;21.60;43.10;;;;;;5079174;28;21229;-52
2022/01/01 10:13:37;;;;;;;4.27;3.87;;;21.70;43.10;;;;;;5081412;28;21200;-53
2022/01/01 10:16:05;;;;;;;5.07;4.00;;;21.80;42.30;;;;;;5079341;28;20469;-53
2022/01/01 10:18:43;;;;;;;5.50;4.17;;;22.00;41.90;;;;;;5083817;28;20499;-53
2022/01/01 10:21:17;;;;;;;4.30;3.87;;;22.20;41.50;;;;;;5085961;28;20441;-52
2022/01/01 10:23:45;;;;;;;4.60;4.20;;;22.10;41.80;;;;;;5090438;28;20484;-52
2022/01/01 10:29:27;;;;;;;4.30;3.87;;;22.20;42.10;;;;;;5084602;28;20575;-52
2022/01/01 10:31:54;;;;;;;4.57;4.10;;;22.40;41.90;;;;;;5087619;28;20452;-52
2022/01/01 10:34:24;;;;;;;5.27;4.67;;;22.40;41.70;;;;;;5076433;28;20488;-52
2022/01/01 10:36:52;;;;;;;4.83;4.33;;;22.40;41.40;;;;;;5078616;28;20442;-48
2022/01/01 10:39:18;;;;;;;4.60;3.60;;;22.10;41.20;;;;;;5082684;28;20438;-52
2022/01/01 10:41:50;;;;;;;4.33;3.70;;;21.90;42.00;;;;;;5085544;28;20449;-53
2022/01/01 10:44:20;;;;;;;5.20;3.97;;;21.90;41.90;;;;;;5078510;28;20493;-48
2022/01/01 10:46:46;;;;;;;5.50;3.90;;;22.00;41.80;;;;;;5083439;28;20473;-49
2022/01/01 10:49:51;;;;;;;4.77;4.20;;;22.20;41.90;;;;;;5086365;28;21269;-48
2022/01/01 10:52:24;;;;;;;5.20;3.50;;;22.10;41.40;;;;;;5075576;28;20231;-51
2022/01/01 10:54:50;;;;;;;4.73;3.87;;;21.80;41.80;;;;;;5085778;28;20493;-53
2022/01/01 10:57:28;;;;;;;4.50;3.50;;;21.50;42.30;;;;;;5079003;28;20453;-51
2022/01/01 11:00:05;;;;;;;3.63;3.20;;;21.40;42.30;;;;;;5083262;28;20576;-48
2022/01/01 11:02:36;;;;;;;4.30;3.63;;;21.50;42.80;;;;;;5083004;28;20447;-51
2022/01/01 11:05:03;;;;;;;5.40;3.83;;;21.40;42.60;;;;;;5081793;28;20481;-51
2022/01/01 11:07:30;;;;;;;4.33;3.50;;;21.70;43.00;;;;;;5081792;28;20961;-51
2022/01/01 11:09:57;;;;;;;3.70;3.40;;;21.90;42.00;;;;;;5083751;28;20841;-49
2022/01/01 11:12:25;;;;;;;3.70;3.40;;;22.00;42.10;;;;;;5081673;28;20478;-50
2022/01/01 11:14:52;;;;;;;3.93;3.30;;;22.30;41.40;;;;;;5101845;28;20478;-49
2022/01/01 11:17:19;;;;;;;3.67;3.30;;;22.10;40.80;;;;;;5090011;28;20468;-52
2022/01/01 11:19:45;;;;;;;4.13;3.57;;;21.90;41.50;;;;;;5083591;28;20474;-51
2022/01/01 11:22:11;;;;;;;3.60;3.30;;;22.00;41.60;;;;;;5088469;28;20444;-48
2022/01/01 11:24:40;;;;;;;3.90;3.20;;;22.10;41.90;;;;;;5085571;28;20485;-48
2022/01/01 11:27:09;;;;;;;5.43;4.20;;;22.10;41.90;;;;;;5079171;28;20430;-49
2022/01/01 11:29:35;;;;;;;4.57;4.17;;;21.90;41.90;;;;;;5084672;28;20445;-48
2022/01/01 11:32:07;;;;;;;5.03;3.83;;;21.60;42.60;;;;;;5085196;28;20429;-50
2022/01/01 11:34:38;;;;;;;5.37;3.50;;;21.20;42.80;;;;;;5088614;28;20802;-51
2022/01/01 11:37:05;;;;;;;4.77;4.00;;;21.00;43.50;;;;;;5089417;28;20543;-49
2022/01/01 11:39:31;;;;;;;4.47;3.47;;;21.00;44.10;;;;;;5082773;28;20436;-49
2022/01/01 11:42:10;;;;;;;5.43;3.90;;;21.10;44.30;;;;;;5086445;28;20448;-49
2022/01/01 11:44:35;;;;;;;4.67;4.17;;;21.00;44.10;;;;;;5088962;28;20488;-47
2022/01/01 11:47:16;;;;;;;3.73;3.43;;;20.70;44.60;;;;;;5083762;28;22029;-51
2022/01/01 11:49:41;;;;;;;4.70;4.10;;;20.70;44.90;;;;;;5078700;28;20187;-52
2022/01/01 11:52:07;;;;;;;5.03;4.23;;;20.70;44.80;;;;;;5085890;28;20566;-49
2022/01/01 11:54:35;;;;;;;4.70;3.60;;;21.00;44.70;;;;;;5088948;28;20236;-49
2022/01/01 11:57:01;;;;;;;5.30;3.97;;;21.00;44.30;;;;;;5083609;28;20199;-51
2022/01/01 11:59:40;;;;;;;4.70;3.50;;;21.20;44.70;;;;;;5078325;28;20602;-53
2022/01/01 12:02:06;;;;;;;4.07;3.60;;;21.50;44.50;;;;;;5084412;28;20194;-50
2022/01/01 12:04:43;;;;;;;5.93;4.13;;;21.70;44.60;;;;;;5078374;28;20493;-51
2022/01/01 12:07:21;;;;;;;4.73;4.00;;;22.10;44.60;;;;;;5085748;28;20286;-49
2022/01/01 12:12:13;;;;;;;5.47;3.90;;;22.60;43.20;;;;;;5081672;28;20931;-50
2022/01/01 12:14:39;;;;;;;5.10;4.20;;;22.80;42.70;;;;;;5076504;28;20588;-54
2022/01/01 12:17:05;;;;;;;4.47;3.93;;;22.80;42.10;;;;;;5078875;28;20470;-50
2022/01/01 12:19:36;;;;;;;4.40;3.90;;;22.90;43.00;;;;;;5072772;28;20745;-52
2022/01/01 12:22:07;;;;;;;6.43;4.47;;;23.00;42.80;;;;;;5075460;28;20447;-52
2022/01/01 12:24:41;;;;;;;3.83;3.53;;;23.20;42.90;;;;;;5089571;28;20533;-53
2022/01/01 12:27:14;;;;;;;5.20;4.70;;;23.30;42.00;;;;;;5088297;28;20459;-52
2022/01/01 12:29:40;;;;;;;4.73;4.13;;;23.40;41.80;;;;;;5078293;28;20496;-50
2022/01/01 12:32:08;;;;;;;4.10;3.80;;;23.40;41.90;;;;;;5080413;28;20461;-51
2022/01/01 12:34:37;;;;;;;4.20;3.90;;;23.50;41.60;;;;;;5087797;28;20433;-52
2022/01/01 12:37:08;;;;;;;4.27;3.87;;;23.60;41.20;;;;;;5092536;28;20485;-50
2022/01/01 12:40:10;;;;;;;5.00;4.50;;;23.60;41.80;;;;;;5094056;28;20959;-49
2022/01/01 12:42:35;;;;;;;5.80;5.30;;;23.60;41.50;;;;;;5068381;28;20445;-50
2022/01/01 12:45:05;;;;;;;5.27;4.40;;;23.70;41.40;;;;;;5083630;28;20519;-50